Time;durP1;ratioP1;P1;durP2;ratioP2;P2;SDS_P1;SDS_P2;PMS_P1;PMS_P2;Temp;Humidity;BMP_temperature;BMP_pressure;BME280_temperature;BME280_humidity;BME280_pressure;Samples;Min_cycle;Max_cycle;Signal;HPM_P1;HPM_P2
2023/10/30 00:00:58;;;;;;;1.80;0.77;;;;;;;16.62;59.16;99102.84;4484293;31;34917;-66
2023/10/30 00:03:26;;;;;;;1.27;0.68;;;;;;;16.69;58.75;99101.16;4487920;31;34092;-66
2023/10/30 00:05:54;;;;;;;2.28;1.10;;;;;;;16.75;58.64;99100.50;4484526;31;33864;-66
2023/10/30 00:08:22;;;;;;;1.92;0.95;;;;;;;16.75;58.71;99109.44;4484312;31;33258;-66
2023/10/30 00:10:50;;;;;;;2.95;1.17;;;;;;;16.57;59.31;99103.38;4487793;31;34834;-66
2023/10/30 00:13:17;;;;;;;2.22;1.00;;;;;;;16.43;59.42;99114.81;4492616;31;34912;-66
2023/10/30 00:15:45;;;;;;;1.33;0.80;;;;;;;16.56;59.14;99117.03;4483136;31;33831;-66
2023/10/30 00:18:13;;;;;;;2.83;1.12;;;;;;;16.72;58.90;99115.16;4491599;31;33079;-66
2023/10/30 00:20:40;;;;;;;1.37;0.80;;;;;;;16.40;59.65;99117.84;4482833;31;33593;-66
2023/10/30 00:23:08;;;;;;;1.35;0.68;;;;;;;16.45;59.51;99120.91;4491139;31;34031;-66
2023/10/30 00:25:36;;;;;;;4.28;0.82;;;;;;;16.88;58.24;99110.81;4485863;31;33939;-66
2023/10/30 00:28:04;;;;;;;1.40;0.95;;;;;;;16.67;58.78;99114.00;4491558;31;33365;-66
2023/10/30 00:30:31;;;;;;;3.20;0.95;;;;;;;16.29;59.96;99113.62;4492492;31;33532;-65
2023/10/30 00:32:59;;;;;;;1.65;0.55;;;;;;;16.71;58.49;99113.47;4480923;31;33947;-65
2023/10/30 00:35:27;;;;;;;1.52;0.80;;;;;;;16.47;58.97;99108.94;4493443;31;33675;-65
2023/10/30 00:37:54;;;;;;;0.70;0.50;;;;;;;16.29;59.75;99111.78;4476781;31;33225;-66
2023/10/30 00:40:24;;;;;;;6.93;1.17;;;;;;;16.48;59.21;99117.87;4478337;31;33664;-66
2023/10/30 00:42:51;;;;;;;1.12;0.88;;;;;;;16.05;60.52;99107.19;4488531;31;34074;-65
2023/10/30 00:45:19;;;;;;;4.12;1.25;;;;;;;16.29;59.60;99109.06;4490453;31;32693;-66
2023/10/30 00:47:47;;;;;;;1.17;0.80;;;;;;;16.27;59.82;99110.25;4490183;31;34351;-66
2023/10/30 00:50:14;;;;;;;1.75;1.05;;;;;;;16.20;59.68;99112.78;4492377;31;34033;-66
2023/10/30 00:52:42;;;;;;;1.20;0.65;;;;;;;16.10;59.77;99101.28;4490482;31;33874;-66
2023/10/30 00:55:10;;;;;;;0.95;0.73;;;;;;;16.66;58.25;99098.78;4498147;31;33910;-66
2023/10/30 00:57:37;;;;;;;2.35;1.08;;;;;;;16.56;58.65;99100.81;4487364;31;33110;-66
2023/10/30 01:00:05;;;;;;;4.07;1.12;;;;;;;16.59;58.32;99093.22;4499287;31;33880;-66
2023/10/30 01:02:34;;;;;;;1.33;0.90;;;;;;;16.21;59.59;99089.31;4491897;31;34954;-66
2023/10/30 01:05:03;;;;;;;5.12;1.30;;;;;;;16.47;58.63;99097.28;4487104;31;34962;-66
2023/10/30 01:07:31;;;;;;;1.75;1.05;;;;;;;16.45;58.58;99092.03;4483497;31;34469;-66
2023/10/30 01:09:58;;;;;;;3.03;1.12;;;;;;;16.60;58.13;99089.53;4482901;31;33761;-66
2023/10/30 01:12:26;;;;;;;1.45;0.65;;;;;;;16.49;58.41;99096.09;4495698;31;34068;-64
2023/10/30 01:14:54;;;;;;;0.73;0.65;;;;;;;16.45;58.60;99088.50;4497632;31;33524;-65
2023/10/30 01:17:21;;;;;;;1.30;0.80;;;;;;;16.76;57.79;99091.41;4485323;31;33252;-64
2023/10/30 01:19:49;;;;;;;2.42;1.12;;;;;;;16.39;58.62;99087.31;4483890;31;34675;-65
2023/10/30 01:22:17;;;;;;;5.03;1.60;;;;;;;16.44;58.49;99090.38;4490592;31;33800;-65
2023/10/30 01:24:44;;;;;;;1.98;0.73;;;;;;;16.22;59.12;99093.72;4492947;31;33559;-65
2023/10/30 01:27:12;;;;;;;1.30;0.88;;;;;;;16.20;59.43;99084.94;4488261;31;33048;-64
2023/10/30 01:29:39;;;;;;;1.33;0.73;;;;;;;16.25;58.89;99083.44;4487205;31;34463;-64
2023/10/30 01:32:07;;;;;;;1.92;0.70;;;;;;;16.69;57.96;99093.03;4486142;31;35453;-65
2023/10/30 01:34:35;;;;;;;1.83;0.62;;;;;;;16.34;58.65;99092.41;4489946;31;34860;-64
2023/10/30 01:37:03;;;;;;;2.08;0.93;;;;;;;16.58;58.13;99090.69;4489906;31;33594;-64
2023/10/30 01:39:31;;;;;;;1.10;0.75;;;;;;;16.29;58.93;99084.78;4483067;32;33590;-65
2023/10/30 01:41:58;;;;;;;2.67;0.70;;;;;;;16.62;58.19;99083.94;4484265;31;34923;-64
2023/10/30 01:44:26;;;;;;;5.93;1.30;;;;;;;16.29;58.83;99081.22;4487196;31;34882;-64
2023/10/30 01:46:55;;;;;;;4.05;1.25;;;;;;;16.37;58.74;99078.56;4483625;31;33990;-64
2023/10/30 01:49:22;;;;;;;3.35;1.08;;;;;;;16.28;58.95;99074.16;4488956;31;34001;-64
2023/10/30 01:51:50;;;;;;;1.60;0.68;;;;;;;16.41;58.54;99077.19;4497126;31;33997;-64
2023/10/30 01:54:18;;;;;;;3.35;0.77;;;;;;;16.30;58.97;99070.25;4474591;31;34704;-64
2023/10/30 01:56:45;;;;;;;5.37;0.73;;;;;;;16.48;58.34;99075.50;4481570;32;33051;-64
2023/10/30 01:59:13;;;;;;;1.87;0.73;;;;;;;16.19;59.30;99075.16;4474561;32;34228;-64
2023/10/30 02:01:41;;;;;;;3.30;1.00;;;;;;;16.47;58.44;99076.53;4484003;31;35876;-64
2023/10/30 02:04:12;;;;;;;1.62;0.30;;;;;;;16.34;58.94;99068.09;4494262;31;34395;-64
2023/10/30 02:06:39;;;;;;;3.65;1.58;;;;;;;16.49;58.58;99068.25;4480837;31;33253;-64
2023/10/30 02:09:07;;;;;;;2.60;1.10;;;;;;;16.38;59.12;99068.59;4493389;31;35258;-64
2023/10/30 02:11:35;;;;;;;1.55;0.77;;;;;;;16.16;59.60;99067.38;4480831;31;34068;-64
2023/10/30 02:14:03;;;;;;;1.80;0.77;;;;;;;16.30;58.98;99070.25;4495516;31;34674;-64
2023/10/30 02:16:30;;;;;;;6.25;1.12;;;;;;;16.40;58.95;99064.69;4494847;31;33512;-64
2023/10/30 02:18:58;;;;;;;3.62;1.30;;;;;;;16.36;59.09;99065.19;4496431;31;33670;-64
2023/10/30 02:21:25;;;;;;;1.85;0.60;;;;;;;16.47;58.73;99063.03;4486778;31;33748;-65
2023/10/30 02:23:54;;;;;;;7.95;1.23;;;;;;;16.47;58.66;99060.31;4489480;31;34329;-64
2023/10/30 02:26:21;;;;;;;3.87;1.12;;;;;;;16.39;59.06;99056.75;4486570;31;33482;-64
2023/10/30 02:28:49;;;;;;;1.75;0.77;;;;;;;16.58;58.53;99063.69;4475590;31;33875;-65
2023/10/30 02:31:17;;;;;;;1.55;0.90;;;;;;;16.52;58.92;99071.44;4471695;31;34203;-64
2023/10/30 02:33:44;;;;;;;0.85;0.75;;;;;;;16.27;59.55;99058.94;4488890;31;33935;-64
2023/10/30 02:36:13;;;;;;;2.67;0.73;;;;;;;16.46;59.00;99068.56;4493524;31;33230;-65
2023/10/30 02:38:40;;;;;;;1.37;0.85;;;;;;;16.55;58.80;99070.25;4485395;31;34647;-64
2023/10/30 02:41:08;;;;;;;1.42;0.80;;;;;;;16.59;58.87;99068.06;4476755;32;34007;-64
2023/10/30 02:43:36;;;;;;;1.27;0.70;;;;;;;16.23;59.80;99071.94;4484087;32;33963;-63
2023/10/30 02:46:06;;;;;;;2.87;1.08;;;;;;;16.60;58.77;99080.59;4482995;32;34112;-64
2023/10/30 02:48:34;;;;;;;2.58;0.77;;;;;;;16.47;59.31;99089.19;4468169;32;33570;-64
2023/10/30 02:51:02;;;;;;;0.32;0.30;;;;;;;16.42;59.29;99086.97;4489287;31;33834;-64
2023/10/30 02:53:29;;;;;;;8.48;0.95;;;;;;;16.33;59.64;99079.88;4491149;31;34614;-64
2023/10/30 02:55:59;;;;;;;3.97;1.02;;;;;;;16.64;58.87;99077.34;4484038;32;34188;-66
2023/10/30 02:58:26;;;;;;;0.88;0.62;;;;;;;16.53;59.32;99081.25;4484196;31;33646;-66
2023/10/30 03:00:55;;;;;;;1.25;0.75;;;;;;;16.70;58.54;99075.84;4721083;26;34141;-65
2023/10/30 03:03:23;;;;;;;2.50;1.33;;;;;;;16.53;59.03;99073.16;4459350;32;32254;-65
2023/10/30 03:05:51;;;;;;;0.73;0.70;;;;;;;16.53;59.14;99075.84;4465992;32;33125;-66
2023/10/30 03:08:18;;;;;;;2.83;1.20;;;;;;;16.16;60.32;99070.94;4466915;32;33573;-64
2023/10/30 03:10:49;;;;;;;1.12;0.55;;;;;;;16.47;59.20;99073.81;4460865;32;34179;-62
2023/10/30 03:13:16;;;;;;;4.25;0.65;;;;;;;16.51;59.35;99074.31;4467026;32;33774;-64
2023/10/30 03:15:47;;;;;;;1.25;0.55;;;;;;;16.23;60.06;99076.50;4465714;32;35240;-63
2023/10/30 03:18:15;;;;;;;2.67;1.42;;;;;;;16.59;59.24;99078.87;4468559;32;33979;-64
2023/10/30 03:20:43;;;;;;;1.48;0.68;;;;;;;16.19;60.25;99073.28;4455683;32;34978;-63
2023/10/30 03:23:10;;;;;;;1.10;0.43;;;;;;;16.53;59.21;99081.25;4468556;32;33604;-63
2023/10/30 03:25:38;;;;;;;2.70;0.60;;;;;;;16.60;59.06;99086.81;4467255;32;33367;-63
2023/10/30 03:28:06;;;;;;;0.88;0.62;;;;;;;16.46;59.56;99074.81;4459341;32;34999;-63
2023/10/30 03:30:36;;;;;;;0.95;0.65;;;;;;;16.27;60.20;99089.47;4467819;32;33932;-63
2023/10/30 03:33:04;;;;;;;4.03;0.90;;;;;;;16.63;58.95;99091.91;4467588;32;35078;-62
2023/10/30 03:35:36;;;;;;;7.30;2.28;;;;;;;16.47;59.34;99086.50;4467188;32;34960;-63
2023/10/30 03:38:04;;;;;;;1.73;0.90;;;;;;;16.42;59.64;99088.84;4464644;32;33884;-63
2023/10/30 03:40:31;;;;;;;6.45;0.73;;;;;;;16.51;59.25;99087.84;4462061;32;33917;-64
2023/10/30 03:42:59;;;;;;;0.98;0.70;;;;;;;17.07;57.43;99087.97;4466826;32;33358;-65
2023/10/30 03:45:27;;;;;;;1.87;0.80;;;;;;;16.91;57.61;99091.53;4464762;32;34143;-65
2023/10/30 03:47:55;;;;;;;0.98;0.80;;;;;;;16.66;58.69;99080.75;4461941;32;33659;-65
2023/10/30 03:50:23;;;;;;;5.03;1.87;;;;;;;16.64;58.45;99077.34;4468731;32;33853;-65
2023/10/30 03:52:51;;;;;;;4.90;1.12;;;;;;;16.55;58.90;99086.47;4465957;32;33706;-65
2023/10/30 03:55:19;;;;;;;1.17;0.50;;;;;;;16.57;58.73;99075.50;4467238;32;33180;-64
2023/10/30 03:57:46;;;;;;;0.47;0.47;;;;;;;16.62;58.46;99078.53;4468276;32;33542;-64
2023/10/30 04:00:14;;;;;;;0.75;0.62;;;;;;;16.50;58.49;99078.03;4467105;32;34154;-65
2023/10/30 04:02:42;;;;;;;23.52;1.40;;;;;;;16.77;58.11;99083.12;4462615;32;34832;-65
2023/10/30 04:05:09;;;;;;;1.33;0.60;;;;;;;16.55;58.52;99081.06;4462649;32;33444;-65
2023/10/30 04:07:37;;;;;;;4.78;0.55;;;;;;;16.50;58.38;99068.09;4466758;32;33560;-65
2023/10/30 04:10:05;;;;;;;0.55;0.40;;;;;;;16.42;58.81;99078.03;4466874;32;33743;-65
2023/10/30 04:12:33;;;;;;;1.85;0.85;;;;;;;16.45;58.64;99067.72;4461156;32;34680;-65
2023/10/30 04:15:00;;;;;;;0.85;0.68;;;;;;;16.56;58.10;99063.84;4467298;32;32975;-65
2023/10/30 04:17:28;;;;;;;0.57;0.50;;;;;;;16.42;58.66;99069.94;4468242;32;33922;-65
2023/10/30 04:19:56;;;;;;;1.40;0.90;;;;;;;15.97;59.34;99071.22;4470068;32;33729;-65
2023/10/30 04:22:23;;;;;;;0.65;0.47;;;;;;;16.29;58.64;99073.13;4468060;32;34412;-66
2023/10/30 04:24:52;;;;;;;1.45;0.95;;;;;;;16.39;57.89;99073.81;4468895;32;33559;-65
2023/10/30 04:27:19;;;;;;;0.40;0.40;;;;;;;16.53;57.50;99070.44;4469528;32;34943;-65
2023/10/30 04:29:47;;;;;;;4.62;1.17;;;;;;;16.43;57.60;99079.72;4468726;32;35060;-66
2023/10/30 04:32:15;;;;;;;7.03;1.02;;;;;;;16.49;57.55;99085.28;4459973;32;33562;-65
2023/10/30 04:34:46;;;;;;;1.85;0.75;;;;;;;16.34;57.83;99080.72;4461789;32;34127;-66
2023/10/30 04:37:14;;;;;;;1.35;0.75;;;;;;;16.49;57.32;99074.47;4468324;32;34205;-65
2023/10/30 04:39:42;;;;;;;2.42;0.65;;;;;;;16.51;57.06;99071.63;4462483;32;34049;-66
2023/10/30 04:42:09;;;;;;;1.80;0.70;;;;;;;16.40;57.44;99061.97;4466931;32;34913;-66
2023/10/30 04:44:37;;;;;;;1.12;0.82;;;;;;;16.50;56.81;99070.78;4466387;32;33210;-65
2023/10/30 04:47:07;;;;;;;4.82;1.10;;;;;;;16.63;56.46;99067.56;4468122;32;33485;-65
2023/10/30 04:49:35;;;;;;;1.45;0.60;;;;;;;16.64;56.30;99058.44;4469369;32;34018;-65
2023/10/30 04:52:04;;;;;;;1.23;0.57;;;;;;;16.41;57.07;99066.41;4469649;32;34250;-65
2023/10/30 04:54:32;;;;;;;1.65;1.30;;;;;;;16.42;56.86;99076.19;4463017;32;34291;-65
2023/10/30 04:57:00;;;;;;;1.25;0.65;;;;;;;16.46;56.70;99073.97;4464825;32;33842;-65
2023/10/30 04:59:27;;;;;;;0.47;0.47;;;;;;;16.06;57.63;99073.78;4469682;32;33952;-65
2023/10/30 05:01:55;;;;;;;3.62;0.77;;;;;;;16.11;57.59;99075.12;4457060;32;33662;-66
2023/10/30 05:04:22;;;;;;;2.08;1.00;;;;;;;15.98;57.99;99075.59;4468138;32;34154;-66
2023/10/30 05:06:50;;;;;;;0.55;0.55;;;;;;;16.31;57.13;99073.81;4467216;32;33546;-65
2023/10/30 05:09:18;;;;;;;3.47;0.93;;;;;;;16.18;57.11;99068.91;4470071;32;34010;-66
2023/10/30 05:11:46;;;;;;;1.20;0.65;;;;;;;15.81;58.58;99074.72;4466137;32;34096;-66
2023/10/30 05:14:13;;;;;;;1.65;1.08;;;;;;;16.21;57.17;99082.09;4461747;32;33173;-66
2023/10/30 05:16:41;;;;;;;6.50;0.95;;;;;;;15.88;58.15;99072.22;4465880;32;34014;-66
2023/10/30 05:19:09;;;;;;;13.90;2.45;;;;;;;16.02;57.82;99090.47;4463168;32;36215;-65
2023/10/30 05:21:36;;;;;;;2.45;1.02;;;;;;;16.29;56.95;99087.47;4468085;32;33667;-65
2023/10/30 05:24:05;;;;;;;2.83;0.75;;;;;;;16.37;56.80;99092.06;4466341;32;33820;-65
2023/10/30 05:26:32;;;;;;;0.85;0.65;;;;;;;16.43;56.63;99102.16;4466884;32;34724;-65
2023/10/30 05:29:00;;;;;;;1.70;0.82;;;;;;;16.27;56.77;99102.16;4457267;32;35311;-64
2023/10/30 05:31:28;;;;;;;0.32;0.30;;;;;;;16.62;55.92;99100.16;4469089;32;34101;-65
2023/10/30 05:33:56;;;;;;;1.40;1.05;;;;;;;16.57;55.84;99111.47;4466927;32;33117;-65
2023/10/30 05:36:23;;;;;;;2.65;0.65;;;;;;;16.88;55.11;99117.06;4459809;32;34640;-65
2023/10/30 05:38:51;;;;;;;3.37;0.88;;;;;;;16.94;54.80;99108.25;4463749;32;34654;-64
2023/10/30 05:41:19;;;;;;;1.62;0.77;;;;;;;16.88;54.65;99117.06;4467349;32;33717;-64
2023/10/30 05:43:47;;;;;;;1.17;0.82;;;;;;;16.88;54.76;99116.22;4468442;32;33577;-64
2023/10/30 05:46:14;;;;;;;2.20;1.20;;;;;;;16.81;55.14;99116.03;4465350;32;33676;-65
2023/10/30 05:48:42;;;;;;;1.77;0.77;;;;;;;16.77;54.99;99114.72;4469222;32;34162;-65
2023/10/30 05:51:10;;;;;;;1.30;0.70;;;;;;;16.59;55.70;99117.53;4468771;32;34930;-64
2023/10/30 05:53:38;;;;;;;1.45;0.85;;;;;;;16.13;56.77;99121.72;4454874;32;33369;-65
2023/10/30 05:56:05;;;;;;;6.85;1.12;;;;;;;16.37;56.06;99127.16;4468296;32;35420;-64
2023/10/30 05:58:33;;;;;;;1.77;0.95;;;;;;;16.61;55.54;99131.72;4468456;32;33996;-64
2023/10/30 06:01:01;;;;;;;3.65;1.15;;;;;;;16.95;54.66;99128.03;4463006;32;34114;-65
2023/10/30 06:03:29;;;;;;;1.05;0.60;;;;;;;16.87;54.80;99130.75;4464870;32;33263;-65
2023/10/30 06:05:56;;;;;;;6.32;1.15;;;;;;;17.16;54.12;99131.03;4464374;32;33907;-65
2023/10/30 06:08:24;;;;;;;2.87;1.10;;;;;;;16.67;55.37;99138.31;4466970;32;35047;-65
2023/10/30 06:10:51;;;;;;;4.53;1.50;;;;;;;16.71;55.13;99139.66;4456047;32;33532;-65
2023/10/30 06:13:19;;;;;;;2.65;0.73;;;;;;;17.05;54.26;99144.09;4454376;32;33864;-65
2023/10/30 06:15:47;;;;;;;5.05;3.00;;;;;;;16.83;54.86;99146.47;4456564;32;33469;-65
2023/10/30 06:18:15;;;;;;;1.12;0.82;;;;;;;16.81;54.79;99143.06;4460591;32;35090;-64
2023/10/30 06:20:44;;;;;;;3.87;1.48;;;;;;;16.69;55.27;99139.84;4466860;32;34051;-64
2023/10/30 06:23:12;;;;;;;2.53;1.15;;;;;;;16.69;55.33;99139.84;4467233;32;34203;-64
2023/10/30 06:25:40;;;;;;;1.00;0.52;;;;;;;16.73;55.16;99140.34;4469512;32;35152;-65
2023/10/30 06:28:10;;;;;;;2.45;1.02;;;;;;;16.78;55.52;99148.81;4468311;32;34998;-64
2023/10/30 06:30:38;;;;;;;2.45;1.10;;;;;;;16.95;54.75;99149.66;4461094;32;33684;-65
2023/10/30 06:33:06;;;;;;;1.00;0.90;;;;;;;16.83;55.17;99149.16;4467729;32;33217;-65
2023/10/30 06:35:33;;;;;;;1.08;0.50;;;;;;;16.93;54.95;99146.28;4467021;32;34632;-66
2023/10/30 06:38:01;;;;;;;0.77;0.50;;;;;;;17.23;54.13;99144.72;4465075;32;33967;-65
2023/10/30 06:40:29;;;;;;;5.72;1.27;;;;;;;17.04;54.48;99148.63;4468623;32;34055;-65
2023/10/30 06:42:56;;;;;;;8.27;0.62;;;;;;;17.35;53.78;99148.75;4462929;32;33222;-66
2023/10/30 06:45:24;;;;;;;2.22;1.17;;;;;;;17.61;53.61;99166.59;4469162;32;33660;-65
2023/10/30 06:47:52;;;;;;;2.35;0.73;;;;;;;17.62;53.11;99168.28;4467905;32;34259;-65
2023/10/30 06:50:19;;;;;;;0.62;0.50;;;;;;;17.45;53.45;99162.94;4465552;32;33896;-67
2023/10/30 06:52:47;;;;;;;3.85;0.88;;;;;;;18.11;52.06;99170.84;4465279;32;33704;-68
2023/10/30 06:55:14;;;;;;;8.93;2.03;;;;;;;17.97;52.33;99169.72;4459554;32;33871;-66
2023/10/30 06:57:42;;;;;;;9.68;0.93;;;;;;;17.77;52.89;99168.44;4456528;32;34151;-67
2023/10/30 07:00:10;;;;;;;0.85;0.47;;;;;;;17.59;53.13;99166.81;4465480;32;34023;-68
2023/10/30 07:02:40;;;;;;;9.93;1.30;;;;;;;17.46;53.74;99172.75;4461257;32;33882;-67
2023/10/30 07:05:08;;;;;;;2.83;0.85;;;;;;;17.76;53.08;99180.28;4460906;32;33507;-68
2023/10/30 07:07:35;;;;;;;1.23;0.90;;;;;;;17.73;53.40;99177.91;4463075;32;34912;-67
2023/10/30 07:10:04;;;;;;;1.33;0.88;;;;;;;18.00;52.23;99168.53;4464714;32;33587;-68
2023/10/30 07:12:31;;;;;;;2.25;1.05;;;;;;;18.34;51.96;99168.19;4463138;32;32749;-68
2023/10/30 07:14:59;;;;;;;4.47;1.05;;;;;;;18.08;51.97;99173.91;4465929;32;33741;-68
2023/10/30 07:17:27;;;;;;;2.30;1.02;;;;;;;18.52;51.14;99162.47;4464845;32;34027;-69
2023/10/30 07:19:54;;;;;;;1.40;0.82;;;;;;;19.63;48.39;99164.53;4464580;32;35086;-67
2023/10/30 07:22:22;;;;;;;2.78;1.60;;;;;;;19.18;49.06;99179.09;4465664;32;33090;-66
2023/10/30 07:24:50;;;;;;;4.93;1.42;;;;;;;18.43;51.07;99182.53;4464752;32;35027;-67
2023/10/30 07:27:18;;;;;;;3.75;1.50;;;;;;;19.22;49.41;99166.84;4465610;32;34074;-66
2023/10/30 07:29:45;;;;;;;3.70;1.65;;;;;;;19.70;48.29;99165.50;4453283;32;34350;-66
2023/10/30 07:32:13;;;;;;;3.45;0.98;;;;;;;19.57;48.38;99168.00;4457768;32;34184;-67
2023/10/30 07:34:41;;;;;;;4.47;1.48;;;;;;;19.72;47.76;99174.31;4466355;32;34003;-68
2023/10/30 07:37:09;;;;;;;2.97;1.42;;;;;;;19.97;47.62;99174.88;4464051;32;33884;-68
2023/10/30 07:39:36;;;;;;;3.25;1.12;;;;;;;20.17;47.31;99169.69;4464149;32;34532;-68
2023/10/30 07:42:04;;;;;;;2.08;0.70;;;;;;;19.38;48.64;99185.66;4467285;32;34263;-67
2023/10/30 07:44:32;;;;;;;3.28;1.55;;;;;;;19.18;49.01;99181.81;4467044;32;34697;-68
2023/10/30 07:47:01;;;;;;;4.47;2.00;;;;;;;19.52;48.36;99190.28;4464745;32;34733;-67
2023/10/30 07:49:28;;;;;;;2.85;1.40;;;;;;;19.43;48.97;99190.56;4463678;32;33986;-66
2023/10/30 07:51:56;;;;;;;1.95;1.00;;;;;;;19.31;48.30;99196.41;4465833;32;33523;-66
2023/10/30 07:54:24;;;;;;;0.93;0.60;;;;;;;19.48;48.50;99185.41;4458463;32;34081;-67
2023/10/30 07:56:51;;;;;;;3.47;0.98;;;;;;;19.38;48.62;99191.09;4465468;32;34864;-67
2023/10/30 07:59:19;;;;;;;3.80;1.33;;;;;;;19.85;47.54;99198.09;4455570;32;35373;-68
2023/10/30 08:01:48;;;;;;;4.20;1.00;;;;;;;20.63;46.25;99193.84;4461331;32;34228;-68
2023/10/30 08:04:16;;;;;;;2.42;0.90;;;;;;;20.66;45.72;99193.47;4459173;32;33568;-68
2023/10/30 08:06:44;;;;;;;1.98;1.12;;;;;;;22.00;43.23;99193.50;4466214;32;35773;-67
2023/10/30 08:09:12;;;;;;;5.15;1.23;;;;;;;21.85;43.47;99190.88;4463799;32;34057;-68
2023/10/30 08:11:39;;;;;;;5.97;1.00;;;;;;;21.44;43.31;99188.09;4465959;32;34640;-69
2023/10/30 08:14:07;;;;;;;3.33;1.02;;;;;;;20.84;44.83;99184.87;4463458;32;34403;-68
2023/10/30 08:16:35;;;;;;;10.80;1.52;;;;;;;21.00;44.77;99182.94;4464618;32;33755;-66
2023/10/30 08:19:04;;;;;;;3.05;0.85;;;;;;;20.99;45.12;99192.94;4457890;32;34427;-65
2023/10/30 08:21:31;;;;;;;2.35;1.08;;;;;;;20.75;45.96;99179.75;4465952;32;33406;-68
2023/10/30 08:23:59;;;;;;;2.00;0.88;;;;;;;21.09;45.26;99173.56;4462163;32;33969;-67
2023/10/30 08:26:28;;;;;;;3.00;0.85;;;;;;;20.67;45.61;99178.84;4464372;32;35266;-66
2023/10/30 08:28:55;;;;;;;5.30;1.33;;;;;;;20.92;45.83;99164.84;4458216;32;34785;-65
2023/10/30 08:31:23;;;;;;;3.10;0.73;;;;;;;21.04;45.60;99166.00;4455215;32;34241;-65
2023/10/30 08:33:51;;;;;;;6.82;0.95;;;;;;;21.38;45.16;99172.59;4465973;32;34039;-66
2023/10/30 08:36:22;;;;;;;2.28;0.93;;;;;;;21.11;44.91;99169.63;4462122;32;35244;-68
2023/10/30 08:38:50;;;;;;;3.90;1.12;;;;;;;20.22;46.88;99161.81;4463129;32;34894;-66
2023/10/30 08:41:22;;;;;;;2.67;1.05;;;;;;;20.07;47.45;99168.31;4464363;32;34190;-67
2023/10/30 08:43:49;;;;;;;1.48;0.65;;;;;;;19.96;48.21;99183.19;4465836;32;33555;-67
2023/10/30 08:46:20;;;;;;;2.47;1.00;;;;;;;19.70;48.46;99175.53;4461664;32;35060;-67
2023/10/30 08:48:48;;;;;;;2.08;1.23;;;;;;;19.40;49.39;99174.66;4463979;32;33967;-68
2023/10/30 08:51:16;;;;;;;2.83;0.70;;;;;;;20.11;47.91;99167.72;4463097;32;33280;-65
2023/10/30 08:53:43;;;;;;;4.65;1.12;;;;;;;20.27;47.63;99163.09;4453459;32;34604;-65
2023/10/30 08:56:11;;;;;;;3.28;1.15;;;;;;;20.50;47.57;99166.50;4460902;32;33607;-66
2023/10/30 08:58:39;;;;;;;1.85;0.88;;;;;;;20.68;46.76;99156.06;4454394;32;34888;-65
2023/10/30 09:01:06;;;;;;;1.75;0.82;;;;;;;20.85;46.91;99164.78;4460502;32;33113;-66
2023/10/30 09:03:34;;;;;;;3.35;0.90;;;;;;;21.63;44.97;99164.78;4454704;32;33957;-66
2023/10/30 09:06:02;;;;;;;2.25;1.02;;;;;;;21.58;45.21;99175.44;4467895;32;34073;-66
2023/10/30 09:08:30;;;;;;;6.37;1.10;;;;;;;21.96;44.43;99167.72;4466642;32;34360;-66
2023/10/30 09:10:58;;;;;;;1.73;0.82;;;;;;;21.62;44.89;99176.72;4467753;32;33294;-66
2023/10/30 09:13:25;;;;;;;3.10;1.10;;;;;;;21.56;45.51;99167.47;4467096;32;34408;-66
2023/10/30 09:15:53;;;;;;;3.05;1.40;;;;;;;21.79;45.03;99174.50;4467157;32;34215;-66
2023/10/30 09:18:21;;;;;;;2.53;0.85;;;;;;;21.70;45.60;99178.44;4466764;32;34615;-66
2023/10/30 09:20:49;;;;;;;4.65;1.20;;;;;;;21.79;45.86;99174.50;4466873;32;34406;-67
2023/10/30 09:23:16;;;;;;;9.02;1.48;;;;;;;21.91;45.32;99174.78;4464541;32;33994;-67
2023/10/30 09:25:44;;;;;;;2.95;1.17;;;;;;;21.77;45.97;99180.19;4466621;32;33812;-66
2023/10/30 09:28:12;;;;;;;3.95;0.88;;;;;;;21.75;46.07;99189.59;4466820;32;33807;-66
2023/10/30 09:30:39;;;;;;;8.18;1.27;;;;;;;21.82;45.69;99193.19;4468160;32;34244;-67
2023/10/30 09:33:07;;;;;;;1.52;0.60;;;;;;;21.32;46.69;99201.41;4467115;32;34120;-66
2023/10/30 09:35:37;;;;;;;1.35;0.77;;;;;;;21.29;46.53;99182.75;4467981;32;34395;-65
2023/10/30 09:38:05;;;;;;;4.03;1.00;;;;;;;21.43;46.53;99189.16;4466676;32;34645;-66
2023/10/30 09:40:33;;;;;;;3.12;1.02;;;;;;;20.98;46.81;99188.56;4460696;32;34404;-65
2023/10/30 09:43:04;;;;;;;2.33;1.08;;;;;;;20.74;47.35;99178.06;4465212;32;33788;-65
2023/10/30 09:45:32;;;;;;;3.87;0.70;;;;;;;20.76;47.07;99189.59;4460228;32;33765;-65
2023/10/30 09:48:00;;;;;;;2.92;1.25;;;;;;;21.00;47.40;99178.31;4460045;32;35132;-65
2023/10/30 09:50:28;;;;;;;3.35;0.80;;;;;;;20.91;47.70;99172.16;4459999;32;34624;-64
2023/10/30 09:52:56;;;;;;;4.93;0.98;;;;;;;20.53;47.95;99168.03;4459734;32;34461;-66
2023/10/30 09:55:24;;;;;;;4.22;1.52;;;;;;;20.76;48.47;99170.56;4465346;32;36596;-66
2023/10/30 09:57:52;;;;;;;5.20;0.93;;;;;;;20.88;47.78;99175.28;4462090;32;33793;-65
2023/10/30 10:00:20;;;;;;;4.03;1.37;;;;;;;20.83;47.69;99183.16;4467110;32;33241;-65
2023/10/30 10:02:48;;;;;;;4.35;1.17;;;;;;;20.83;48.09;99180.44;4461848;32;33515;-66
2023/10/30 10:05:18;;;;;;;2.97;1.08;;;;;;;21.01;47.40;99176.44;4461425;32;33860;-66
2023/10/30 10:07:46;;;;;;;3.55;1.20;;;;;;;21.05;47.33;99172.28;4464413;32;34117;-65
2023/10/30 10:10:18;;;;;;;1.92;0.70;;;;;;;20.81;47.92;99162.66;4462096;32;33142;-64
2023/10/30 10:12:48;;;;;;;2.80;0.95;;;;;;;21.27;47.57;99164.94;4466634;32;33406;-65
2023/10/30 10:15:20;;;;;;;5.30;1.23;;;;;;;20.90;48.04;99167.78;4462442;32;34922;-64
2023/10/30 10:17:51;;;;;;;4.37;1.12;;;;;;;20.95;47.63;99169.91;4463031;32;33733;-66
2023/10/30 10:20:21;;;;;;;2.37;1.12;;;;;;;21.18;47.74;99172.38;4464755;32;34087;-64
2023/10/30 10:22:50;;;;;;;1.67;0.82;;;;;;;20.83;48.38;99168.72;4465129;32;33243;-65
2023/10/30 10:25:18;;;;;;;4.03;1.37;;;;;;;20.96;48.05;99168.84;4463888;32;33901;-65
2023/10/30 10:27:48;;;;;;;5.90;1.45;;;;;;;20.72;47.89;99163.81;4462001;32;33593;-66
2023/10/30 10:30:22;;;;;;;2.80;1.35;;;;;;;21.07;47.35;99164.78;4465803;32;34173;-66
2023/10/30 10:32:50;;;;;;;3.03;1.02;;;;;;;20.66;47.76;99173.59;4457940;32;34916;-66
2023/10/30 10:35:18;;;;;;;3.67;0.90;;;;;;;20.83;47.74;99168.72;4465479;32;34847;-66
2023/10/30 10:37:45;;;;;;;3.90;0.88;;;;;;;20.36;48.36;99173.66;4458800;32;33755;-67
2023/10/30 10:40:18;;;;;;;2.92;0.98;;;;;;;20.48;48.66;99172.13;4463865;32;34280;-66
2023/10/30 10:42:46;;;;;;;0.32;0.32;;;;;;;20.31;48.91;99167.12;4464426;32;33600;-66
2023/10/30 10:45:14;;;;;;;3.03;1.08;;;;;;;20.63;48.02;99168.53;4462995;32;35704;-67
2023/10/30 10:47:42;;;;;;;0.57;0.47;;;;;;;20.50;48.15;99171.09;4461285;32;34708;-66
2023/10/30 10:50:10;;;;;;;2.92;1.20;;;;;;;20.66;47.98;99170.87;4467422;32;33660;-67
2023/10/30 10:52:39;;;;;;;3.10;1.35;;;;;;;20.49;48.28;99153.94;4465559;32;33682;-67
2023/10/30 10:55:07;;;;;;;1.75;0.85;;;;;;;20.37;48.55;99158.19;4464866;32;33709;-67
2023/10/30 10:57:46;;;;;;;1.00;0.68;;;;;;;20.58;48.32;99154.69;4458716;32;33789;-66
2023/10/30 11:00:15;;;;;;;2.62;1.25;;;;;;;20.53;48.80;99149.00;4463103;32;34336;-66
2023/10/30 11:02:46;;;;;;;1.87;0.93;;;;;;;20.42;48.93;99158.47;4451044;32;33293;-67
2023/10/30 11:05:14;;;;;;;4.97;1.35;;;;;;;20.38;48.99;99162.59;4451940;32;34843;-65
2023/10/30 11:07:57;;;;;;;2.10;0.88;;;;;;;20.91;47.51;99160.44;4426941;32;33563;-66
2023/10/30 11:10:32;;;;;;;3.17;1.20;;;;;;;20.90;47.90;99156.06;4423396;32;33031;-66
2023/10/30 11:13:12;;;;;;;2.42;1.30;;;;;;;21.25;46.89;99159.69;4426623;32;33951;-66
2023/10/30 11:15:56;;;;;;;1.45;0.82;;;;;;;21.21;46.97;99147.50;4421104;32;33779;-66
2023/10/30 11:18:26;;;;;;;4.50;1.17;;;;;;;21.16;47.36;99145.38;4415295;32;33917;-68
2023/10/30 11:21:09;;;;;;;4.87;1.62;;;;;;;21.24;47.15;99141.66;4425431;32;34373;-66
2023/10/30 11:23:48;;;;;;;2.10;1.00;;;;;;;21.39;46.95;99138.88;4432732;32;32264;-65
2023/10/30 11:26:36;;;;;;;3.60;0.95;;;;;;;21.40;46.94;99146.84;4429294;32;33591;-68
2023/10/30 11:29:06;;;;;;;2.28;1.20;;;;;;;21.33;47.02;99136.91;4432038;32;33267;-67
2023/10/30 11:31:56;;;;;;;6.00;0.80;;;;;;;21.36;46.71;99128.38;4435053;32;33606;-67
2023/10/30 11:34:34;;;;;;;5.68;1.23;;;;;;;21.34;46.86;99123.09;4432396;32;34937;-67
2023/10/30 11:37:06;;;;;;;1.30;0.62;;;;;;;21.51;46.74;99122.81;4423894;32;34148;-66
2023/10/30 11:39:42;;;;;;;5.57;1.23;;;;;;;21.26;47.18;99152.38;4451290;32;32120;-66